Time,TemperatureF,DewpointF,PressureIn,WindDirection,WindDirectionDegrees,WindSpeedMPH,WindSpeedGustMPH,Humidity,HourlyPrecipIn,Conditions,Clouds,dailyrainin,SoftwareType,DateUTC
2013-05-03 00:52:00,31.0,13.0,30.46,SW,220,3.0,11.0,46,0.00,,,-99.99,,2013-05-03 06:52:00,
2013-05-03 01:01:00,31.0,12.0,30.45,SSW,211,6.0,9.0,45,0.00,,,-99.99,,2013-05-03 07:01:00,
2013-05-03 01:11:00,31.0,12.0,30.45,SSW,211,6.0,9.0,45,0.00,,,-99.99,,2013-05-03 07:11:00,
2013-05-03 01:21:00,31.0,12.0,30.45,WSW,246,8.0,13.0,44,0.00,,,-99.99,,2013-05-03 07:21:00,
2013-05-03 01:31:00,31.0,12.0,30.43,WSW,240,7.0,15.0,44,0.00,,,-99.99,,2013-05-03 07:31:00,
2013-05-03 01:42:00,31.0,12.0,30.43,WSW,240,7.0,15.0,44,0.00,,,-99.99,,2013-05-03 07:42:00,
2013-05-03 01:52:00,32.0,12.0,30.43,WSW,252,8.0,13.0,43,0.00,,,-99.99,,2013-05-03 07:52:00,
2013-05-03 02:01:00,31.0,12.0,30.42,WSW,254,5.0,12.0,45,0.00,,,-99.99,,2013-05-03 08:01:00,
2013-05-03 02:11:00,31.0,12.0,30.42,WSW,254,5.0,12.0,45,0.00,,,-99.99,,2013-05-03 08:11:00,
2013-05-03 02:21:00,31.0,12.0,30.42,SW,215,11.0,15.0,44,0.00,,,-99.99,,2013-05-03 08:21:00,
2013-05-03 02:31:00,31.0,12.0,30.41,SW,230,11.0,16.0,45,0.00,,,-99.99,,2013-05-03 08:31:00,
2013-05-03 02:42:00,31.0,12.0,30.41,SW,230,11.0,16.0,45,0.00,,,-99.99,,2013-05-03 08:42:00,
2013-05-03 02:52:00,30.0,12.0,30.41,WSW,239,14.0,17.0,47,0.00,,,-99.99,,2013-05-03 08:52:00,
2013-05-03 03:01:00,30.0,13.0,30.41,SW,222,14.0,18.0,48,0.00,,,-99.99,,2013-05-03 09:01:00,
2013-05-03 03:11:00,30.0,13.0,30.41,SW,222,14.0,18.0,48,0.00,,,-99.99,,2013-05-03 09:11:00,
2013-05-03 03:21:00,29.0,13.0,30.42,SW,232,12.0,18.0,50,0.00,,,-99.99,,2013-05-03 09:21:00,
2013-05-03 03:32:00,28.0,13.0,30.42,SW,229,8.0,15.0,52,0.00,,,-99.99,,2013-05-03 09:32:00,
2013-05-03 03:42:00,28.0,13.0,30.42,SW,229,8.0,15.0,52,0.00,,,-99.99,,2013-05-03 09:42:00,
2013-05-03 03:53:00,29.0,13.0,30.40,SW,225,10.0,14.0,51,0.00,,,-99.99,,2013-05-03 09:53:00,
2013-05-03 04:02:00,30.0,12.0,30.39,SSW,211,12.0,17.0,46,0.00,,,-99.99,,2013-05-03 10:02:00,
2013-05-03 04:12:00,30.0,12.0,30.39,SSW,211,12.0,17.0,46,0.00,,,-99.99,,2013-05-03 10:12:00,
2013-05-03 04:22:00,31.0,13.0,30.40,WSW,244,10.0,19.0,46,0.00,,,-99.99,,2013-05-03 10:22:00,
2013-05-03 04:32:00,30.0,11.0,30.40,WSW,244,10.0,19.0,45,0.00,,,-99.99,,2013-05-03 10:32:00,
2013-05-03 04:42:00,30.0,11.0,30.40,WSW,244,10.0,19.0,45,0.00,,,-99.99,,2013-05-03 10:42:00,
2013-05-03 04:52:00,32.0,12.0,30.42,West,259,12.0,19.0,43,0.00,,,-99.99,,2013-05-03 10:52:00,
2013-05-03 05:02:00,31.0,12.0,30.39,WSW,258,8.0,18.0,44,0.00,,,-99.99,,2013-05-03 11:02:00,
2013-05-03 05:11:00,31.0,12.0,30.39,WSW,258,8.0,18.0,44,0.00,,,-99.99,,2013-05-03 11:11:00,
2013-05-03 05:22:00,31.0,11.0,30.39,West,278,10.0,16.0,43,0.00,,,-99.99,,2013-05-03 11:22:00,
2013-05-03 05:31:00,32.0,12.0,30.38,West,275,8.0,16.0,43,0.00,,,-99.99,,2013-05-03 11:31:00,
2013-05-03 05:42:00,32.0,12.0,30.38,West,275,8.0,16.0,43,0.00,,,-99.99,,2013-05-03 11:42:00,
2013-05-03 05:52:00,32.0,12.0,30.38,West,264,9.0,16.0,42,0.00,,,-99.99,,2013-05-03 11:52:00,
2013-05-03 06:01:00,31.0,11.0,30.37,West,273,7.0,16.0,42,0.00,,,-99.99,,2013-05-03 12:01:00,
2013-05-03 06:11:00,31.0,11.0,30.37,West,273,7.0,16.0,42,0.00,,,-99.99,,2013-05-03 12:11:00,
2013-05-03 06:21:00,32.0,11.0,30.37,WNW,288,6.0,14.0,41,0.00,,,-99.99,,2013-05-03 12:21:00,
2013-05-03 06:32:00,32.0,10.0,30.36,WSW,245,8.0,16.0,40,0.00,,,-99.99,,2013-05-03 12:32:00,
2013-05-03 06:42:00,32.0,10.0,30.36,WSW,245,8.0,16.0,40,0.00,,,-99.99,,2013-05-03 12:42:00,
2013-05-03 06:52:00,33.0,12.0,30.36,SW,233,6.0,13.0,41,0.00,,,-99.99,,2013-05-03 12:52:00,
2013-05-03 07:01:00,33.0,11.0,30.36,WSW,242,9.0,12.0,39,0.00,,,-99.99,,2013-05-03 13:01:00,
2013-05-03 07:11:00,33.0,11.0,30.36,WSW,242,9.0,12.0,39,0.00,,,-99.99,,2013-05-03 13:11:00,
2013-05-03 07:22:00,34.0,12.0,30.36,WSW,254,8.0,15.0,40,0.00,,,-99.99,,2013-05-03 13:22:00,
2013-05-03 07:32:00,34.0,13.0,30.37,WSW,250,9.0,13.0,41,0.00,,,-99.99,,2013-05-03 13:32:00,
2013-05-03 07:42:00,34.0,13.0,30.37,WSW,250,9.0,13.0,41,0.00,,,-99.99,,2013-05-03 13:42:00,
2013-05-03 07:52:00,34.0,12.0,30.38,WNW,284,10.0,14.0,40,0.00,,,-99.99,,2013-05-03 13:52:00,
2013-05-03 08:02:00,36.0,14.0,30.36,WSW,256,11.0,16.0,40,0.00,,,-99.99,,2013-05-03 14:02:00,
2013-05-03 08:11:00,36.0,14.0,30.36,WSW,256,11.0,16.0,40,0.00,,,-99.99,,2013-05-03 14:11:00,
2013-05-03 08:22:00,37.0,16.0,30.34,WSW,242,12.0,18.0,42,0.00,,,-99.99,,2013-05-03 14:22:00,
2013-05-03 08:32:00,38.0,15.0,30.33,WSW,243,14.0,20.0,38,0.00,,,-99.99,,2013-05-03 14:32:00,
2013-05-03 08:42:00,38.0,15.0,30.33,WSW,243,14.0,20.0,38,0.00,,,-99.99,,2013-05-03 14:42:00,
2013-05-03 08:52:00,39.0,14.0,30.32,WSW,238,13.0,20.0,36,0.00,,,-99.99,,2013-05-03 14:52:00,
2013-05-03 09:01:00,40.0,16.0,30.32,WSW,255,12.0,19.0,38,0.00,,,-99.99,,2013-05-03 15:01:00,
2013-05-03 09:11:00,40.0,16.0,30.32,WSW,255,12.0,19.0,38,0.00,,,-99.99,,2013-05-03 15:11:00,
2013-05-03 09:22:00,41.0,16.0,30.32,WSW,253,10.0,18.0,36,0.00,,,-99.99,,2013-05-03 15:22:00,
2013-05-03 09:32:00,42.0,16.0,30.30,West,279,10.0,16.0,35,0.00,,,-99.99,,2013-05-03 15:32:00,
2013-05-03 09:43:00,42.0,16.0,30.30,West,279,10.0,16.0,35,0.00,,,-99.99,,2013-05-03 15:43:00,
2013-05-03 09:53:00,44.0,19.0,30.30,West,272,7.0,15.0,37,0.00,,,-99.99,,2013-05-03 15:53:00,
2013-05-03 10:03:00,45.0,19.0,30.32,West,266,3.0,18.0,35,0.00,,,-99.99,,2013-05-03 16:03:00,
2013-05-03 10:12:00,45.0,19.0,30.32,West,266,3.0,18.0,35,0.00,,,-99.99,,2013-05-03 16:12:00,
2013-05-03 10:22:00,45.0,17.0,30.30,WSW,249,5.0,12.0,32,0.00,,,-99.99,,2013-05-03 16:22:00,
2013-05-03 10:32:00,46.0,17.0,30.29,WSW,251,4.0,12.0,31,0.00,,,0.25,,2013-05-03 16:32:00,
2013-05-03 10:42:00,46.0,17.0,30.29,WSW,251,4.0,12.0,31,0.00,,,0.25,,2013-05-03 16:42:00,
2013-05-03 10:52:00,47.0,20.0,30.29,SW,214,7.0,13.0,34,0.00,,,0.25,,2013-05-03 16:52:00,
2013-05-03 11:02:00,47.0,19.0,30.28,SW,228,9.0,14.0,33,0.00,,,0.25,,2013-05-03 17:02:00,
2013-05-03 11:12:00,48.0,20.0,30.26,SSW,212,11.0,19.0,32,0.00,,,0.25,,2013-05-03 17:12:00,
2013-05-03 11:23:00,48.0,20.0,30.26,SSW,212,11.0,19.0,32,0.00,,,0.25,,2013-05-03 17:23:00,
2013-05-03 11:32:00,49.0,18.0,30.26,West,280,4.0,15.0,29,0.00,,,0.24,,2013-05-03 17:32:00,
2013-05-03 11:42:00,49.0,18.0,30.26,West,280,4.0,15.0,29,0.00,,,0.24,,2013-05-03 17:42:00,
2013-05-03 11:52:00,49.0,20.0,30.27,East,83,4.0,13.0,32,0.00,,,0.24,,2013-05-03 17:52:00,
2013-05-03 12:01:00,49.0,24.0,30.27,NE,56,9.0,13.0,37,0.00,,,0.24,,2013-05-03 18:01:00,
2013-05-03 12:12:00,49.0,24.0,30.27,NE,56,9.0,13.0,37,0.00,,,0.24,,2013-05-03 18:12:00,
2013-05-03 12:21:00,48.0,21.0,30.27,East,79,5.0,13.0,34,0.00,,,0.24,,2013-05-03 18:21:00,
2013-05-03 12:32:00,49.0,23.0,30.26,ENE,69,6.0,13.0,35,0.00,,,0.11,,2013-05-03 18:32:00,
2013-05-03 12:42:00,49.0,23.0,30.26,ENE,69,6.0,13.0,35,0.00,,,0.11,,2013-05-03 18:42:00,
2013-05-03 12:52:00,49.0,19.0,30.26,East,92,5.0,13.0,30,0.00,,,0.11,,2013-05-03 18:52:00,
2013-05-03 13:01:00,50.0,22.0,30.25,ENE,67,10.0,12.0,33,0.00,,,0.11,,2013-05-03 19:01:00,
2013-05-03 13:11:00,50.0,22.0,30.25,ENE,67,10.0,12.0,33,0.00,,,0.11,,2013-05-03 19:11:00,
2013-05-03 13:21:00,50.0,22.0,30.24,East,84,4.0,10.0,33,0.00,,,0.11,,2013-05-03 19:21:00,
2013-05-03 13:32:00,50.0,23.0,30.24,East,87,5.0,9.0,34,0.00,,,0.03,,2013-05-03 19:32:00,
2013-05-03 13:41:00,50.0,23.0,30.24,East,87,5.0,9.0,34,0.00,,,0.03,,2013-05-03 19:41:00,
2013-05-03 13:52:00,50.0,21.0,30.24,NE,56,2.0,9.0,32,0.00,,,0.03,,2013-05-03 19:52:00,
2013-05-03 14:02:00,51.0,21.0,30.22,East,91,4.0,11.0,30,0.00,,,0.03,,2013-05-03 20:02:00,
2013-05-03 14:11:00,51.0,21.0,30.22,East,91,4.0,11.0,30,0.00,,,0.03,,2013-05-03 20:11:00,
2013-05-03 14:21:00,52.0,24.0,30.23,NE,53,5.0,11.0,33,0.00,,,0.03,,2013-05-03 20:21:00,
2013-05-03 14:31:00,52.0,25.0,30.22,East,86,4.0,13.0,34,0.00,,,0.00,,2013-05-03 20:31:00,
2013-05-03 14:42:00,52.0,25.0,30.22,East,86,4.0,13.0,34,0.00,,,0.00,,2013-05-03 20:42:00,
2013-05-03 14:52:00,52.0,21.0,30.23,ENE,76,4.0,11.0,29,0.00,,,0.00,,2013-05-03 20:52:00,
2013-05-03 15:01:00,52.0,20.0,30.20,North,9,5.0,12.0,28,0.00,,,0.00,,2013-05-03 21:01:00,
2013-05-03 15:11:00,52.0,20.0,30.20,North,9,5.0,12.0,28,0.00,,,0.00,,2013-05-03 21:11:00,
2013-05-03 15:21:00,52.0,19.0,30.19,NE,40,7.0,20.0,27,0.00,,,0.00,,2013-05-03 21:21:00,
2013-05-03 15:33:00,53.0,21.0,30.19,NE,42,3.0,12.0,28,0.00,,,0.00,,2013-05-03 21:33:00,
2013-05-03 15:42:00,53.0,21.0,30.19,NE,42,3.0,12.0,28,0.00,,,0.00,,2013-05-03 21:42:00,
2013-05-03 15:53:00,53.0,20.0,30.18,SE,126,7.0,11.0,27,0.00,,,0.00,,2013-05-03 21:53:00,
2013-05-03 16:02:00,52.0,20.0,30.17,ESE,119,3.0,9.0,28,0.00,,,0.00,,2013-05-03 22:02:00,
2013-05-03 16:12:00,52.0,20.0,30.17,ESE,119,3.0,9.0,28,0.00,,,0.00,,2013-05-03 22:12:00,
2013-05-03 16:22:00,53.0,21.0,30.18,East,94,4.0,11.0,28,0.00,,,0.00,,2013-05-03 22:22:00,
2013-05-03 16:32:00,53.0,20.0,30.17,NE,48,5.0,9.0,27,0.00,,,0.00,,2013-05-03 22:32:00,
2013-05-03 16:42:00,53.0,20.0,30.17,NE,48,5.0,9.0,27,0.00,,,0.00,,2013-05-03 22:42:00,
2013-05-03 16:52:00,53.0,19.0,30.17,ENE,65,0.0,11.0,26,0.00,,,0.00,,2013-05-03 22:52:00,
2013-05-03 17:01:00,53.0,20.0,30.16,ENE,60,8.0,11.0,27,0.00,,,0.00,,2013-05-03 23:01:00,
2013-05-03 17:11:00,53.0,20.0,30.16,ENE,60,8.0,11.0,27,0.00,,,0.00,,2013-05-03 23:11:00,
2013-05-03 17:21:00,53.0,20.0,30.16,ENE,68,6.0,12.0,27,0.00,,,0.00,,2013-05-03 23:21:00,
2013-05-03 17:31:00,53.0,20.0,30.16,ENE,69,2.0,7.0,27,0.00,,,0.00,,2013-05-03 23:31:00,
2013-05-03 17:41:00,53.0,20.0,30.16,ENE,69,2.0,7.0,27,0.00,,,0.00,,2013-05-03 23:41:00,
2013-05-03 17:52:00,54.0,21.0,30.16,NNE,24,10.0,13.0,27,0.00,,,0.00,,2013-05-03 23:52:00,
2013-05-03 18:01:00,53.0,21.0,30.16,NE,53,4.0,11.0,28,0.00,,,0.00,,2013-05-04 00:01:00,
2013-05-03 18:11:00,53.0,21.0,30.16,NE,53,4.0,11.0,28,0.00,,,0.00,,2013-05-04 00:11:00,
2013-05-03 18:22:00,51.0,21.0,30.13,NE,34,7.0,10.0,30,0.00,,,0.00,,2013-05-04 00:22:00,
2013-05-03 18:31:00,52.0,20.0,30.16,NE,43,8.0,13.0,28,0.00,,,0.00,,2013-05-04 00:31:00,
2013-05-03 18:41:00,52.0,20.0,30.16,NE,43,8.0,13.0,28,0.00,,,0.00,,2013-05-04 00:41:00,
2013-05-03 18:52:00,49.0,25.0,30.15,ENE,69,10.0,16.0,38,0.00,,,0.00,,2013-05-04 00:52:00,
2013-05-03 19:01:00,46.0,25.0,30.16,ENE,77,9.0,14.0,44,0.00,,,0.00,,2013-05-04 01:01:00,
2013-05-03 19:11:00,46.0,25.0,30.16,ENE,77,9.0,14.0,44,0.00,,,0.00,,2013-05-04 01:11:00,
2013-05-03 19:21:00,45.0,28.0,30.16,East,80,5.0,9.0,51,0.00,,,0.00,,2013-05-04 01:21:00,
2013-05-03 19:31:00,44.0,28.0,30.17,North,360,7.0,11.0,54,0.00,,,0.00,,2013-05-04 01:31:00,
2013-05-03 19:41:00,43.0,28.0,30.18,NNE,22,6.0,13.0,55,0.00,,,0.00,,2013-05-04 01:41:00,
2013-05-03 19:52:00,43.0,28.0,30.18,NNE,22,6.0,13.0,55,0.00,,,0.00,,2013-05-04 01:52:00,
2013-05-03 20:02:00,42.0,27.0,30.18,NNE,24,9.0,12.0,56,0.00,,,0.00,,2013-05-04 02:02:00,
2013-05-03 20:11:00,42.0,27.0,30.18,NNE,24,9.0,12.0,56,0.00,,,0.00,,2013-05-04 02:11:00,
2013-05-03 20:21:00,41.0,27.0,30.18,NNE,15,8.0,12.0,58,0.00,,,0.00,,2013-05-04 02:21:00,
2013-05-03 20:32:00,40.0,28.0,30.19,NNE,26,6.0,11.0,61,0.00,,,0.00,,2013-05-04 02:32:00,
2013-05-03 20:41:00,40.0,28.0,30.19,NNE,26,6.0,11.0,61,0.00,,,0.00,,2013-05-04 02:41:00,
2013-05-03 20:52:00,39.0,27.0,30.19,NNE,17,9.0,11.0,62,0.00,,,0.00,,2013-05-04 02:52:00,
2013-05-03 21:02:00,39.0,27.0,30.20,NNE,23,7.0,14.0,63,0.00,,,0.00,,2013-05-04 03:02:00,
2013-05-03 21:11:00,39.0,27.0,30.20,NNE,29,5.0,10.0,63,0.00,,,0.00,,2013-05-04 03:11:00,
2013-05-03 21:21:00,39.0,27.0,30.20,NNE,29,5.0,10.0,63,0.00,,,0.00,,2013-05-04 03:21:00,
2013-05-03 21:33:00,38.0,27.0,30.22,NE,36,0.0,6.0,64,0.00,,,0.00,,2013-05-04 03:33:00,
2013-05-03 21:43:00,38.0,27.0,30.22,NE,36,0.0,6.0,64,0.00,,,0.00,,2013-05-04 03:43:00,
2013-05-03 21:53:00,38.0,28.0,30.22,NE,36,0.0,0.0,67,0.00,,,0.00,,2013-05-04 03:53:00,
2013-05-03 22:02:00,37.0,27.0,30.22,NE,36,0.0,0.0,68,0.00,,,0.00,,2013-05-04 04:02:00,
2013-05-03 22:12:00,37.0,27.0,30.22,NE,36,0.0,0.0,68,0.00,,,0.00,,2013-05-04 04:12:00,
2013-05-03 22:22:00,37.0,28.0,30.22,NNE,32,2.0,5.0,70,0.00,,,0.00,,2013-05-04 04:22:00,
2013-05-03 22:32:00,38.0,28.0,30.20,NNE,30,5.0,9.0,68,0.00,,,0.00,,2013-05-04 04:32:00,
2013-05-03 22:42:00,38.0,28.0,30.20,NNE,30,5.0,9.0,68,0.00,,,0.00,,2013-05-04 04:42:00,
2013-05-03 22:52:00,38.0,29.0,30.20,NNE,26,0.0,4.0,69,0.00,,,0.00,,2013-05-04 04:52:00,
2013-05-03 23:02:00,37.0,28.0,30.21,NNE,25,0.0,4.0,71,0.00,,,0.00,,2013-05-04 05:02:00,
2013-05-03 23:11:00,37.0,29.0,30.19,NNE,26,0.0,0.0,72,0.00,,,0.00,,2013-05-04 05:11:00,
2013-05-03 23:22:00,37.0,29.0,30.19,NNE,26,0.0,0.0,72,0.00,,,0.00,,2013-05-04 05:22:00,
2013-05-03 23:32:00,37.0,29.0,30.20,NNE,26,3.0,5.0,72,0.00,,,0.00,,2013-05-04 05:32:00,
2013-05-03 23:42:00,37.0,29.0,30.20,NNE,26,3.0,5.0,72,0.00,,,0.00,,2013-05-04 05:42:00,
2013-05-03 23:52:00,37.0,28.0,30.18,NNE,26,0.0,4.0,70,0.00,,,0.00,,2013-05-04 05:52:00,